Bosporus — V2QY — position and weather

sailwx.info

Track history (hours):
 
Tides and Currents Weather Stations Pressure Air Temp Water Temp Dewpoint Dewpoint Depression Visibility Wind Speed Wind Dir Waves Ship Positions

Bosporus

Last reported at 2015-May-04 01:33 UTC. Time now 2015-May-04 02:58 UTC.
Position N 43°24' E 004°54'.

Length 100 m; draft 4 m.

Type: Cargo ship. MMSI: 304010802.

Date/timePositionNaut miles runAvg speedWind from/ knotsBaromVisibWave heightAir tempDewpointWater temp
2015-May-04 01:33N 43°24' E 004°54'2 0.9
2015-May-03 23:21N 43°26' E 004°53'0 0.0
2015-May-03 15:03N 43°26' E 004°53'0 0.0
2015-May-03 14:21N 43°26' E 004°53'0 0.0
2015-May-03 13:21N 43°26' E 004°53'0 0.0
2015-May-03 12:27N 43°26' E 004°53'0 0.0
2015-May-03 11:16N 43°26' E 004°53'6 8.5
2015-May-03 10:33N 43°21' E 004°59'22010.9
2015-May-02 14:20N 40°51' E 001°21'  
2015-Apr-30 09:33N 43°23' E 004°56'3 0.8
2015-Apr-30 05:23N 43°26' E 004°53'1 0.1
2015-Apr-29 18:23N 43°25' E 004°55'0 0.0
2015-Apr-29 17:26N 43°25' E 004°55'0 0.0
2015-Apr-29 16:29N 43°25' E 004°55'0 0.0
2015-Apr-29 15:26N 43°25' E 004°55'0 0.0
2015-Apr-29 14:29N 43°25' E 004°55'0 0.0
2015-Apr-29 13:29N 43°25' E 004°55'0 0.0
2015-Apr-29 12:29N 43°25' E 004°55'0 0.0
2015-Apr-29 10:17N 43°25' E 004°55'0 0.0
2015-Apr-29 09:29N 43°25' E 004°55'0 0.0
2015-Apr-29 08:29N 43°25' E 004°55'0 0.0
2015-Apr-29 07:32N 43°25' E 004°55'0 0.0
2015-Apr-29 02:23N 43°25' E 004°55'0 0.0
2015-Apr-29 01:17N 43°25' E 004°55'0 0.0
2015-Apr-28 23:29N 43°25' E 004°55'0 0.0
2015-Apr-28 22:29N 43°25' E 004°55'0 0.0
2015-Apr-28 21:29N 43°25' E 004°55'0 0.0
2015-Apr-28 20:05N 43°25' E 004°55'0 0.0
2015-Apr-28 19:23N 43°25' E 004°55'0 0.0
2015-Apr-28 18:20N 43°25' E 004°55'0 0.0
2015-Apr-28 17:29N 43°25' E 004°55'0 0.0
2015-Apr-28 16:23N 43°25' E 004°55'0 0.0
2015-Apr-28 15:32N 43°25' E 004°55'0 0.0
2015-Apr-28 14:32N 43°25' E 004°55'0 0.0
2015-Apr-28 13:29N 43°25' E 004°55'0 0.0
2015-Apr-28 12:29N 43°25' E 004°55'0 0.0
2015-Apr-28 11:29N 43°25' E 004°55'0 0.0
2015-Apr-28 10:18N 43°25' E 004°55'5 6.3
2015-Apr-28 09:33N 43°21' E 004°59'14 9.7
2015-Apr-28 08:08N 43°16' E 004°41'1111.9
2015-Apr-28 07:12N 43°15' E 004°26'1111.5
2015-Apr-28 06:15N 43°15' E 004°11'912.2
2015-Apr-28 05:30N 43°15' E 003°58'1211.7
2015-Apr-28 04:31N 43°14' E 003°43'1111.0
2015-Apr-28 03:28N 43°09' E 003°28'1111.5
2015-Apr-28 02:33N 43°02' E 003°18'10 9.7
2015-Apr-28 01:33N 42°53' E 003°15'10 9.7
2015-Apr-28 00:33N 42°43' E 003°17'1010.0
2015-Apr-27 23:33N 42°33' E 003°19'1010.1
2015-Apr-27 22:34N 42°23' E 003°21'10 9.7
2015-Apr-27 21:33N 42°14' E 003°20'1110.6
2015-Apr-27 20:34N 42°03' E 003°18'1211.6
2015-Apr-27 19:30N 41°51' E 003°15'1111.5
2015-Apr-27 18:31N 41°43' E 003°04'1211.8
2015-Apr-27 17:31N 41°36' E 002°52'1212.0
2015-Apr-27 16:31N 41°29' E 002°39'1211.7
2015-Apr-27 15:31N 41°22' E 002°27'2 0.0
2015-Apr-25 19:30N 41°23' E 002°29'1310.6
2015-Apr-25 18:19N 41°31' E 002°42'910.6
2015-Apr-25 17:27N 41°36' E 002°51'1010.7
2015-Apr-25 16:29N 41°42' E 003°02'1010.1
2015-Apr-25 15:27N 41°49' E 003°14'10 9.8
2015-Apr-25 14:25N 41°56' E 003°22'1210.6
2015-Apr-25 13:20N 42°05' E 003°32'810.6
2015-Apr-25 12:32N 42°12' E 003°39'1110.8
2015-Apr-25 11:28N 42°20' E 003°49'1010.6
2015-Apr-25 10:33N 42°28' E 003°58'1211.2
2015-Apr-25 09:29N 42°37' E 004°08'1110.5
2015-Apr-25 08:25N 42°46' E 004°18'1110.9
2015-Apr-25 07:25N 42°54' E 004°27'1410.5
2015-Apr-25 06:03N 43°05' E 004°40'1910.3
2015-Apr-25 04:14N 43°20' E 004°56'5 7.7
2015-Apr-25 03:32N 43°25' E 004°53'1 0.0
2015-Apr-24 12:28N 43°26' E 004°54'0 0.0
2015-Apr-24 05:31N 43°26' E 004°54'  
Track history (hours):
 
Tides and Currents Weather Stations Pressure Air Temp Water Temp Dewpoint Dewpoint Depression Visibility Wind Speed Wind Dir Waves Ship Positions

Bosporus

Last reported at 2015-May-04 01:33 UTC. Time now 2015-May-04 02:58 UTC.
Position N 43°24' E 004°54'.

Length 100 m; draft 4 m.

Type: Cargo ship. MMSI: 304010802.

Date/timePositionNaut miles runAvg speedWind from/ knotsBaromVisibWave heightAir tempDewpointWater temp
2015-May-04 01:33N 43°24' E 004°54'2 0.9
2015-May-03 23:21N 43°26' E 004°53'0 0.0
2015-May-03 15:03N 43°26' E 004°53'0 0.0
2015-May-03 14:21N 43°26' E 004°53'0 0.0
2015-May-03 13:21N 43°26' E 004°53'0 0.0
2015-May-03 12:27N 43°26' E 004°53'0 0.0
2015-May-03 11:16N 43°26' E 004°53'6 8.5
2015-May-03 10:33N 43°21' E 004°59'22010.9
2015-May-02 14:20N 40°51' E 001°21'  
2015-Apr-30 09:33N 43°23' E 004°56'3 0.8
2015-Apr-30 05:23N 43°26' E 004°53'1 0.1
2015-Apr-29 18:23N 43°25' E 004°55'0 0.0
2015-Apr-29 17:26N 43°25' E 004°55'0 0.0
2015-Apr-29 16:29N 43°25' E 004°55'0 0.0
2015-Apr-29 15:26N 43°25' E 004°55'0 0.0
2015-Apr-29 14:29N 43°25' E 004°55'0 0.0
2015-Apr-29 13:29N 43°25' E 004°55'0 0.0
2015-Apr-29 12:29N 43°25' E 004°55'0 0.0
2015-Apr-29 10:17N 43°25' E 004°55'0 0.0
2015-Apr-29 09:29N 43°25' E 004°55'0 0.0
2015-Apr-29 08:29N 43°25' E 004°55'0 0.0
2015-Apr-29 07:32N 43°25' E 004°55'0 0.0
2015-Apr-29 02:23N 43°25' E 004°55'0 0.0
2015-Apr-29 01:17N 43°25' E 004°55'0 0.0
2015-Apr-28 23:29N 43°25' E 004°55'0 0.0
2015-Apr-28 22:29N 43°25' E 004°55'0 0.0
2015-Apr-28 21:29N 43°25' E 004°55'0 0.0
2015-Apr-28 20:05N 43°25' E 004°55'0 0.0
2015-Apr-28 19:23N 43°25' E 004°55'0 0.0
2015-Apr-28 18:20N 43°25' E 004°55'0 0.0
2015-Apr-28 17:29N 43°25' E 004°55'0 0.0
2015-Apr-28 16:23N 43°25' E 004°55'0 0.0
2015-Apr-28 15:32N 43°25' E 004°55'0 0.0
2015-Apr-28 14:32N 43°25' E 004°55'0 0.0
2015-Apr-28 13:29N 43°25' E 004°55'0 0.0
2015-Apr-28 12:29N 43°25' E 004°55'0 0.0
2015-Apr-28 11:29N 43°25' E 004°55'0 0.0
2015-Apr-28 10:18N 43°25' E 004°55'5 6.3
2015-Apr-28 09:33N 43°21' E 004°59'14 9.7
2015-Apr-28 08:08N 43°16' E 004°41'1111.9
2015-Apr-28 07:12N 43°15' E 004°26'1111.5
2015-Apr-28 06:15N 43°15' E 004°11'912.2
2015-Apr-28 05:30N 43°15' E 003°58'1211.7
2015-Apr-28 04:31N 43°14' E 003°43'1111.0
2015-Apr-28 03:28N 43°09' E 003°28'1111.5
2015-Apr-28 02:33N 43°02' E 003°18'10 9.7
2015-Apr-28 01:33N 42°53' E 003°15'10 9.7
2015-Apr-28 00:33N 42°43' E 003°17'1010.0
2015-Apr-27 23:33N 42°33' E 003°19'1010.1
2015-Apr-27 22:34N 42°23' E 003°21'10 9.7
2015-Apr-27 21:33N 42°14' E 003°20'1110.6
2015-Apr-27 20:34N 42°03' E 003°18'1211.6
2015-Apr-27 19:30N 41°51' E 003°15'1111.5
2015-Apr-27 18:31N 41°43' E 003°04'1211.8
2015-Apr-27 17:31N 41°36' E 002°52'1212.0
2015-Apr-27 16:31N 41°29' E 002°39'1211.7
2015-Apr-27 15:31N 41°22' E 002°27'2 0.0
2015-Apr-25 19:30N 41°23' E 002°29'1310.6
2015-Apr-25 18:19N 41°31' E 002°42'910.6
2015-Apr-25 17:27N 41°36' E 002°51'1010.7
2015-Apr-25 16:29N 41°42' E 003°02'1010.1
2015-Apr-25 15:27N 41°49' E 003°14'10 9.8
2015-Apr-25 14:25N 41°56' E 003°22'1210.6
2015-Apr-25 13:20N 42°05' E 003°32'810.6
2015-Apr-25 12:32N 42°12' E 003°39'1110.8
2015-Apr-25 11:28N 42°20' E 003°49'1010.6
2015-Apr-25 10:33N 42°28' E 003°58'1211.2
2015-Apr-25 09:29N 42°37' E 004°08'1110.5
2015-Apr-25 08:25N 42°46' E 004°18'1110.9
2015-Apr-25 07:25N 42°54' E 004°27'1410.5
2015-Apr-25 06:03N 43°05' E 004°40'1910.3
2015-Apr-25 04:14N 43°20' E 004°56'5 7.7
2015-Apr-25 03:32N 43°25' E 004°53'1 0.0
2015-Apr-24 12:28N 43°26' E 004°54'0 0.0
2015-Apr-24 05:31N 43°26' E 004°54'  

Dump ship's entire track history